createdAt,value
2019-02-28T00:01:59.451Z,13.77
2019-02-28T00:04:33.565Z,12.80
2019-02-28T00:07:07.548Z,14.03
2019-02-28T00:09:41.275Z,13.47
2019-02-28T00:12:16.431Z,12.90
2019-02-28T00:14:49.959Z,15.33
2019-02-28T00:17:23.912Z,13.73
2019-02-28T00:19:57.972Z,15.30
2019-02-28T00:22:33.579Z,14.00
2019-02-28T00:25:07.816Z,13.83
2019-02-28T00:27:42.468Z,13.73
2019-02-28T00:30:18.606Z,14.20
2019-02-28T00:32:56.444Z,14.00
2019-02-28T00:35:29.880Z,12.23
2019-02-28T00:38:03.790Z,12.37
2019-02-28T00:40:38.525Z,10.83
2019-02-28T00:43:12.799Z,10.93
2019-02-28T00:45:46.435Z,10.93
2019-02-28T00:48:22.397Z,10.90
2019-02-28T00:50:59.231Z,9.00
2019-02-28T00:53:37.352Z,9.57
2019-02-28T00:56:09.387Z,9.03
2019-02-28T00:58:43.152Z,9.73
2019-02-28T01:01:17.092Z,8.77
2019-02-28T01:03:50.968Z,10.10
2019-02-28T01:06:24.419Z,9.00
2019-02-28T01:08:57.931Z,10.33
2019-02-28T01:11:31.678Z,9.27
2019-02-28T01:14:06.179Z,8.63
2019-02-28T01:16:42.231Z,9.07
2019-02-28T01:19:16.020Z,8.77
2019-02-28T01:21:49.635Z,8.83
2019-02-28T01:24:23.563Z,7.70
2019-02-28T01:26:56.932Z,7.60
2019-02-28T01:29:32.947Z,8.80
2019-02-28T01:32:06.194Z,8.40
2019-02-28T01:34:42.717Z,7.47
2019-02-28T01:37:17.210Z,7.00
2019-02-28T01:39:50.863Z,8.77
2019-02-28T01:42:24.395Z,7.60
2019-02-28T01:44:58.097Z,8.30
2019-02-28T01:47:31.572Z,8.50
2019-02-28T01:50:06.878Z,9.47
2019-02-28T01:52:44.388Z,8.57
2019-02-28T01:55:15.961Z,7.57
2019-02-28T01:57:49.482Z,7.40
2019-02-28T02:00:23.855Z,6.67
2019-02-28T02:02:57.949Z,5.90
2019-02-28T02:05:32.633Z,7.10
2019-02-28T02:08:07.328Z,7.00
2019-02-28T02:10:41.276Z,6.93
2019-02-28T02:13:14.749Z,7.00
2019-02-28T02:15:51.205Z,7.00
2019-02-28T02:18:23.737Z,7.10
2019-02-28T02:21:00.122Z,7.17
2019-02-28T02:23:33.055Z,8.13
2019-02-28T02:26:08.459Z,8.83
2019-02-28T02:28:41.779Z,8.60
2019-02-28T02:31:16.100Z,7.30
2019-02-28T02:33:52.473Z,7.70
2019-02-28T02:36:27.804Z,6.87
2019-02-28T02:39:01.284Z,8.00
2019-02-28T02:41:36.556Z,7.63
2019-02-28T02:44:10.078Z,7.33
2019-02-28T02:46:44.001Z,7.47
2019-02-28T02:49:19.925Z,9.50
2019-02-28T02:51:53.099Z,7.47
2019-02-28T02:54:26.908Z,7.83
2019-02-28T02:57:00.862Z,7.10
2019-02-28T02:59:38.968Z,9.73
2019-02-28T03:02:09.423Z,7.40
2019-02-28T03:04:42.897Z,8.33
2019-02-28T03:07:23.271Z,7.83
2019-02-28T03:09:52.739Z,7.33
2019-02-28T03:12:31.157Z,6.80
2019-02-28T03:15:02.141Z,6.27
2019-02-28T03:17:36.043Z,6.17
2019-02-28T03:20:10.128Z,6.10
2019-02-28T03:22:44.847Z,6.77
2019-02-28T03:25:18.433Z,6.67
2019-02-28T03:27:56.493Z,6.27
2019-02-28T03:30:31.885Z,5.83
2019-02-28T03:33:02.557Z,5.97
2019-02-28T03:35:43.351Z,5.93
2019-02-28T03:38:14.786Z,6.23
2019-02-28T03:40:48.337Z,5.67
2019-02-28T03:43:22.145Z,5.73
2019-02-28T03:45:56.357Z,6.07
2019-02-28T03:48:34.894Z,6.67
2019-02-28T03:51:05.256Z,5.73
2019-02-28T03:53:39.248Z,6.00
2019-02-28T03:56:14.236Z,5.90
2019-02-28T03:58:48.267Z,5.73
2019-02-28T04:01:21.977Z,5.60
2019-02-28T04:03:56.267Z,5.43
2019-02-28T04:06:29.984Z,9.03
2019-02-28T04:09:08.535Z,7.70
2019-02-28T04:11:39.882Z,7.43
2019-02-28T04:14:13.817Z,6.40
2019-02-28T04:16:52.703Z,4.00
2019-02-28T04:19:23.099Z,7.80
2019-02-28T04:21:56.610Z,5.00
2019-02-28T04:24:30.526Z,5.13
2019-02-28T04:27:06.992Z,5.20
2019-02-28T04:29:39.218Z,5.53
2019-02-28T04:32:12.520Z,6.10
2019-02-28T04:34:49.237Z,6.67
2019-02-28T04:37:21.591Z,4.67
2019-02-28T04:39:57.986Z,6.87
2019-02-28T04:42:31.553Z,6.30
2019-02-28T04:45:05.327Z,5.33
2019-02-28T04:47:40.651Z,5.70
2019-02-28T04:50:14.584Z,6.73
2019-02-28T04:52:48.323Z,8.03
2019-02-28T04:55:22.812Z,7.10
2019-02-28T04:57:56.397Z,9.43
2019-02-28T05:00:30.345Z,7.00
2019-02-28T05:03:04.453Z,7.47
2019-02-28T05:05:38.446Z,6.80
2019-02-28T05:08:11.972Z,9.70
2019-02-28T05:10:45.925Z,8.43
2019-02-28T05:13:19.631Z,10.47
2019-02-28T05:15:54.388Z,5.80
2019-02-28T05:18:28.243Z,5.80
2019-02-28T05:21:02.354Z,5.20
2019-02-28T05:23:36.732Z,5.80
2019-02-28T05:26:10.818Z,6.20
2019-02-28T05:28:44.386Z,10.10
2019-02-28T05:31:18.475Z,7.17
2019-02-28T05:33:52.086Z,7.93
2019-02-28T05:36:26.020Z,8.73
2019-02-28T05:38:59.764Z,12.23
2019-02-28T05:41:36.567Z,11.30
2019-02-28T05:44:10.765Z,10.50
2019-02-28T05:46:46.726Z,11.37
2019-02-28T05:49:24.885Z,9.30
2019-02-28T05:51:59.867Z,10.23
2019-02-28T05:54:33.653Z,9.00
2019-02-28T05:57:08.874Z,8.97
2019-02-28T05:59:43.216Z,10.73
2019-02-28T06:02:18.989Z,10.77
2019-02-28T06:04:52.175Z,12.87
2019-02-28T06:07:28.740Z,13.57
2019-02-28T06:10:01.621Z,9.73
2019-02-28T06:12:35.638Z,9.30
2019-02-28T06:15:10.065Z,9.57
2019-02-28T06:17:44.481Z,11.30
2019-02-28T06:20:19.955Z,10.20
2019-02-28T06:22:53.997Z,9.07
2019-02-28T06:25:27.522Z,10.63
2019-02-28T06:28:08.160Z,9.53
2019-02-28T06:30:42.718Z,11.60
2019-02-28T06:33:16.723Z,12.93
2019-02-28T06:35:53.676Z,10.27
2019-02-28T06:38:27.059Z,12.20
2019-02-28T06:41:00.775Z,11.00
2019-02-28T06:43:38.348Z,9.70
2019-02-28T06:46:12.320Z,10.10
2019-02-28T06:48:46.321Z,10.80
2019-02-28T06:51:20.893Z,10.13
2019-02-28T06:53:54.974Z,10.20
2019-02-28T06:56:30.843Z,7.03
2019-02-28T06:59:06.073Z,11.03
2019-02-28T07:01:44.075Z,11.30
2019-02-28T07:04:18.182Z,9.27
2019-02-28T07:06:57.169Z,10.07
2019-02-28T07:09:33.604Z,10.57
2019-02-28T07:12:09.446Z,11.00
2019-02-28T07:14:49.208Z,22.97
2019-02-28T07:17:20.893Z,12.07
2019-02-28T07:20:01.346Z,12.33
2019-02-28T07:22:32.249Z,11.40
2019-02-28T07:25:09.401Z,10.30
2019-02-28T07:27:42.430Z,14.83
2019-02-28T07:30:19.306Z,11.93
2019-02-28T07:32:53.767Z,11.23
2019-02-28T07:35:34.225Z,11.63
2019-02-28T07:38:06.362Z,11.23
2019-02-28T07:40:40.805Z,12.80
2019-02-28T07:43:14.826Z,12.27
2019-02-28T07:45:52.294Z,14.50
2019-02-28T07:48:29.882Z,13.80
2019-02-28T07:51:04.102Z,12.17
2019-02-28T07:53:41.009Z,12.23
2019-02-28T07:56:14.991Z,12.10
2019-02-28T07:58:49.274Z,16.53
2019-02-28T08:01:24.559Z,11.93
2019-02-28T08:03:59.585Z,10.17
2019-02-28T08:06:36.265Z,14.63
2019-02-28T08:09:20.883Z,16.90
2019-02-28T08:11:56.445Z,10.87
2019-02-28T08:14:31.141Z,11.57
2019-02-28T08:17:08.748Z,11.33
2019-02-28T08:19:41.318Z,7.83
2019-02-28T08:22:15.957Z,6.63
2019-02-28T08:24:52.099Z,8.07
2019-02-28T08:27:26.258Z,7.70
2019-02-28T08:30:01.911Z,6.93
2019-02-28T08:32:42.545Z,7.30
2019-02-28T08:35:13.893Z,5.80
2019-02-28T08:37:52.006Z,6.60
2019-02-28T08:40:26.498Z,4.83
2019-02-28T08:43:00.843Z,3.83
2019-02-28T08:45:35.596Z,6.27
2019-02-28T08:48:13.338Z,9.80
2019-02-28T08:50:48.525Z,11.07
2019-02-28T08:53:22.726Z,6.53
2019-02-28T08:55:57.364Z,7.97
2019-02-28T08:58:32.258Z,6.87
2019-02-28T09:01:06.590Z,5.03
2019-02-28T09:03:40.921Z,4.67
2019-02-28T09:06:14.448Z,3.30
2019-02-28T09:08:50.691Z,7.93
2019-02-28T09:11:25.832Z,7.57
2019-02-28T09:14:00.193Z,6.10
2019-02-28T09:16:36.728Z,9.50
2019-02-28T09:19:11.480Z,6.10
2019-02-28T09:21:45.775Z,7.03
2019-02-28T09:24:21.027Z,5.63
2019-02-28T09:26:55.748Z,4.33
2019-02-28T09:29:30.949Z,5.27
2019-02-28T09:32:10.277Z,5.13
2019-02-28T09:34:45.383Z,4.80
2019-02-28T09:37:19.583Z,7.00
2019-02-28T09:39:54.979Z,5.17
2019-02-28T09:42:29.698Z,5.20
2019-02-28T09:45:07.571Z,5.50
2019-02-28T09:47:42.329Z,5.30
2019-02-28T09:50:22.446Z,5.90
2019-02-28T09:52:55.588Z,6.63
2019-02-28T09:55:35.360Z,4.80
2019-02-28T09:58:09.812Z,3.87
2019-02-28T10:00:46.936Z,6.17
2019-02-28T10:03:24.306Z,4.13
2019-02-28T10:05:58.873Z,4.00
2019-02-28T10:08:33.489Z,4.40
2019-02-28T10:11:09.352Z,5.77
2019-02-28T10:13:53.280Z,4.67
2019-02-28T10:16:26.345Z,6.03
2019-02-28T10:19:01.072Z,4.70
2019-02-28T10:21:39.490Z,4.97
2019-02-28T10:24:12.046Z,5.60
2019-02-28T10:26:48.164Z,6.60
2019-02-28T10:29:22.760Z,5.30
2019-02-28T10:31:57.065Z,5.70
2019-02-28T10:34:31.654Z,5.20
2019-02-28T10:37:06.123Z,8.80
2019-02-28T10:39:43.089Z,5.87
2019-02-28T10:42:16.529Z,6.10
2019-02-28T10:44:51.757Z,6.47
2019-02-28T10:47:29.618Z,7.70
2019-02-28T10:50:01.792Z,5.80
2019-02-28T10:52:38.423Z,6.97
2019-02-28T10:55:13.533Z,9.30
2019-02-28T10:57:55.183Z,10.77
2019-02-28T11:00:33.657Z,6.47
2019-02-28T11:03:08.539Z,7.63
2019-02-28T11:05:44.776Z,7.43
2019-02-28T11:08:19.758Z,6.67
2019-02-28T11:10:54.661Z,7.20
2019-02-28T11:13:32.185Z,7.83
2019-02-28T11:16:06.314Z,7.57
2019-02-28T11:18:42.747Z,7.83
2019-02-28T11:21:18.427Z,7.87
2019-02-28T11:23:56.031Z,8.10
2019-02-28T11:26:32.455Z,7.13
2019-02-28T11:29:07.413Z,6.87
2019-02-28T11:31:41.923Z,6.67
2019-02-28T11:34:18.698Z,7.20
2019-02-28T11:36:54.025Z,7.43
2019-02-28T11:39:30.482Z,7.30
2019-02-28T11:42:04.866Z,7.17
2019-02-28T11:44:40.006Z,8.23
2019-02-28T11:47:16.699Z,7.23
2019-02-28T11:49:53.835Z,6.90
2019-02-28T11:52:29.343Z,7.63
2019-02-28T11:55:06.631Z,6.57
2019-02-28T11:57:42.145Z,7.47
2019-02-28T12:00:21.947Z,6.83
2019-02-28T12:03:00.949Z,6.83
2019-02-28T12:05:37.742Z,7.90
2019-02-28T12:08:24.884Z,7.07
2019-02-28T12:11:06.128Z,6.83
2019-02-28T12:13:42.772Z,7.47
2019-02-28T12:16:19.259Z,6.90
2019-02-28T12:18:54.611Z,6.83
2019-02-28T12:21:30.240Z,7.73
2019-02-28T12:24:04.532Z,6.67
2019-02-28T12:26:40.268Z,7.13
2019-02-28T12:29:15.875Z,9.40
2019-02-28T12:31:52.143Z,6.83
2019-02-28T12:34:28.762Z,8.33
2019-02-28T12:37:03.051Z,6.93
2019-02-28T12:39:38.253Z,7.47
2019-02-28T12:42:13.781Z,6.83
2019-02-28T12:44:49.020Z,6.27
2019-02-28T12:47:25.086Z,6.37
2019-02-28T12:49:59.724Z,5.53
2019-02-28T12:52:34.353Z,4.93
2019-02-28T12:55:15.436Z,5.87
2019-02-28T12:57:51.751Z,5.03
2019-02-28T13:00:28.901Z,5.97
2019-02-28T13:03:03.529Z,5.93
2019-02-28T13:05:38.485Z,4.73
2019-02-28T13:08:12.807Z,5.33
2019-02-28T13:10:47.192Z,4.77
2019-02-28T13:13:27.384Z,5.37
2019-02-28T13:15:57.727Z,4.93
2019-02-28T13:18:43.651Z,5.20
2019-02-28T13:21:18.785Z,5.47
2019-02-28T13:23:53.637Z,5.53
2019-02-28T13:26:30.441Z,5.50
2019-02-28T13:29:10.849Z,4.87
2019-02-28T13:31:45.438Z,5.10
2019-02-28T13:34:29.066Z,4.77
2019-02-28T13:37:03.178Z,5.20
2019-02-28T13:39:39.671Z,4.60
2019-02-28T13:42:15.922Z,5.20
2019-02-28T13:44:50.087Z,4.83
2019-02-28T13:47:26.991Z,5.20
2019-02-28T13:50:02.116Z,8.53
2019-02-28T13:52:36.521Z,5.30
2019-02-28T13:55:14.299Z,5.60
2019-02-28T13:57:51.931Z,5.03
2019-02-28T14:00:31.335Z,5.40
2019-02-28T14:03:10.519Z,6.03
2019-02-28T14:05:45.001Z,5.20
2019-02-28T14:08:19.947Z,4.53
2019-02-28T14:10:56.704Z,5.30
2019-02-28T14:13:34.687Z,4.87
2019-02-28T14:16:07.875Z,5.43
2019-02-28T14:18:42.480Z,5.67
2019-02-28T14:21:21.758Z,5.80
2019-02-28T14:23:56.849Z,5.27
2019-02-28T14:26:31.231Z,4.97
2019-02-28T14:29:07.097Z,6.90
2019-02-28T14:31:42.701Z,4.97
2019-02-28T14:34:17.408Z,4.90
2019-02-28T14:36:51.757Z,5.37
2019-02-28T14:39:25.247Z,6.30
2019-02-28T14:42:03.132Z,7.60
2019-02-28T14:44:35.534Z,7.83
2019-02-28T14:47:11.676Z,6.80
2019-02-28T14:49:47.188Z,6.83
2019-02-28T14:52:21.944Z,5.90
2019-02-28T14:54:57.113Z,6.07
2019-02-28T14:57:35.781Z,5.77
2019-02-28T15:00:15.138Z,6.67
2019-02-28T15:02:52.196Z,9.17
2019-02-28T15:05:27.563Z,6.30
2019-02-28T15:08:03.962Z,7.03
2019-02-28T15:10:39.761Z,7.50
2019-02-28T15:13:15.191Z,6.67
2019-02-28T15:15:53.150Z,7.43
2019-02-28T15:18:27.666Z,5.90
2019-02-28T15:21:00.988Z,5.50
2019-02-28T15:23:35.268Z,6.10
2019-02-28T15:26:14.294Z,7.60
2019-02-28T15:28:49.493Z,5.43
2019-02-28T15:31:23.521Z,6.10
2019-02-28T15:34:02.253Z,7.10
2019-02-28T15:36:36.705Z,5.20
2019-02-28T15:39:11.846Z,7.07
2019-02-28T15:41:53.447Z,5.93
2019-02-28T15:44:29.142Z,5.63
2019-02-28T15:47:05.412Z,5.63
2019-02-28T15:49:42.437Z,5.50
2019-02-28T15:52:26.536Z,5.37
2019-02-28T15:55:03.040Z,5.47
2019-02-28T15:57:40.420Z,6.53
2019-02-28T16:00:29.059Z,6.50
2019-02-28T16:03:03.308Z,6.50
2019-02-28T16:05:42.692Z,8.90
2019-02-28T16:08:14.864Z,8.03
2019-02-28T16:10:53.189Z,6.87
2019-02-28T16:13:26.724Z,6.47
2019-02-28T16:16:01.943Z,8.00
2019-02-28T16:18:35.859Z,6.53
2019-02-28T16:21:10.617Z,7.13
2019-02-28T16:23:45.132Z,6.80
2019-02-28T16:26:21.771Z,6.23
2019-02-28T16:28:56.033Z,6.73
2019-02-28T16:31:32.345Z,6.50
2019-02-28T16:34:08.344Z,6.87
2019-02-28T16:36:42.782Z,7.17
2019-02-28T16:39:18.203Z,6.90
2019-02-28T16:41:53.533Z,7.27
2019-02-28T16:44:31.829Z,6.87
2019-02-28T16:47:06.714Z,8.97
2019-02-28T16:49:44.419Z,8.77
2019-02-28T16:52:21.920Z,8.67
2019-02-28T16:55:17.108Z,8.27
2019-02-28T16:57:55.012Z,9.07
2019-02-28T17:00:30.508Z,11.83
2019-02-28T17:03:07.375Z,15.30
2019-02-28T17:05:47.306Z,14.77
2019-02-28T17:08:21.535Z,13.63
2019-02-28T17:10:55.999Z,14.50
2019-02-28T17:13:39.495Z,14.43
2019-02-28T17:16:39.416Z,18.80
2019-02-28T17:19:15.395Z,17.57
2019-02-28T17:21:52.308Z,20.90
2019-02-28T17:24:27.127Z,22.57
2019-02-28T17:27:11.604Z,24.20
2019-02-28T17:30:08.014Z,25.33
2019-02-28T17:32:43.321Z,27.80
2019-02-28T17:35:17.852Z,30.73
2019-02-28T17:37:52.205Z,30.07
2019-02-28T17:40:27.123Z,31.63
2019-02-28T17:43:04.039Z,31.40
2019-02-28T17:45:43.239Z,30.00
2019-02-28T17:48:56.388Z,32.10
2019-02-28T17:51:48.235Z,33.57
2019-02-28T17:54:48.722Z,35.30
2019-02-28T17:57:52.336Z,32.97
2019-02-28T18:01:04.101Z,32.67
2019-02-28T18:04:11.430Z,34.27
2019-02-28T18:07:41.190Z,36.10
2019-02-28T18:10:41.876Z,32.87
2019-02-28T18:13:59.441Z,33.90
2019-02-28T18:17:12.011Z,36.20
2019-02-28T18:20:17.372Z,33.33
2019-02-28T18:23:35.501Z,33.67
2019-02-28T18:26:51.298Z,33.23
2019-02-28T18:29:38.688Z,34.60
2019-02-28T18:32:18.916Z,33.53
2019-02-28T18:34:56.246Z,40.33
2019-02-28T18:37:29.365Z,40.27
2019-02-28T18:40:04.063Z,44.07
2019-02-28T18:42:38.969Z,47.40
2019-02-28T18:45:15.630Z,47.23
2019-02-28T18:47:50.023Z,47.17
2019-02-28T18:50:25.956Z,48.10
2019-02-28T18:53:00.173Z,50.47
2019-02-28T18:55:49.480Z,47.60
2019-02-28T18:58:23.461Z,47.63
2019-02-28T19:01:01.086Z,47.63
2019-02-28T19:03:35.029Z,46.37
2019-02-28T19:06:09.225Z,42.53
2019-02-28T19:08:46.028Z,44.73
2019-02-28T19:11:21.837Z,40.70
2019-02-28T19:13:57.090Z,40.27
2019-02-28T19:16:31.233Z,41.00
2019-02-28T19:19:05.629Z,33.77
2019-02-28T19:21:40.716Z,34.70
2019-02-28T19:24:15.075Z,35.57
2019-02-28T19:26:50.039Z,35.63
2019-02-28T19:29:23.929Z,36.23
2019-02-28T19:31:58.846Z,33.67
2019-02-28T19:34:32.827Z,34.47
2019-02-28T19:37:07.025Z,29.90
2019-02-28T19:39:40.871Z,30.23
2019-02-28T19:42:15.480Z,30.53
2019-02-28T19:44:50.251Z,31.80
2019-02-28T19:47:23.762Z,33.37
2019-02-28T19:49:57.718Z,32.77
2019-02-28T19:52:33.088Z,33.80
2019-02-28T19:55:10.595Z,32.03
2019-02-28T19:57:45.996Z,29.33
2019-02-28T20:00:20.395Z,27.27
2019-02-28T20:02:56.103Z,29.63
2019-02-28T20:05:30.925Z,34.03
2019-02-28T20:08:05.987Z,29.43
2019-02-28T20:10:40.593Z,30.80
2019-02-28T20:13:15.851Z,29.57
2019-02-28T20:15:50.172Z,28.57
2019-02-28T20:18:24.652Z,31.23
2019-02-28T20:20:58.467Z,30.13
2019-02-28T20:23:33.131Z,30.03
2019-02-28T20:26:07.136Z,32.83
2019-02-28T20:28:42.642Z,28.47
2019-02-28T20:31:17.350Z,27.33
2019-02-28T20:33:51.968Z,25.60
2019-02-28T20:36:26.010Z,28.03
2019-02-28T20:38:59.424Z,28.43
2019-02-28T20:41:33.459Z,23.57
2019-02-28T20:44:07.772Z,23.50
2019-02-28T20:46:45.999Z,25.33
2019-02-28T20:49:20.615Z,21.97
2019-02-28T20:51:55.358Z,21.50
2019-02-28T20:54:29.594Z,18.13
2019-02-28T20:57:04.001Z,17.87
2019-02-28T20:59:38.317Z,17.90
2019-02-28T21:02:11.978Z,18.77
2019-02-28T21:04:47.883Z,19.40
2019-02-28T21:07:26.798Z,18.50
2019-02-28T21:10:01.514Z,19.33
2019-02-28T21:12:36.275Z,18.60
2019-02-28T21:15:11.084Z,19.10
2019-02-28T21:17:45.872Z,18.80
2019-02-28T21:20:19.962Z,20.47
2019-02-28T21:22:53.763Z,17.70
2019-02-28T21:25:27.678Z,17.03
2019-02-28T21:28:01.747Z,17.27
2019-02-28T21:30:35.725Z,19.93
2019-02-28T21:33:09.636Z,16.60
2019-02-28T21:35:44.401Z,17.67
2019-02-28T21:38:18.842Z,17.23
2019-02-28T21:40:53.461Z,14.87
2019-02-28T21:43:38.608Z,15.37
2019-02-28T21:46:10.781Z,16.03
2019-02-28T21:48:44.680Z,15.80
2019-02-28T21:51:18.977Z,15.70
2019-02-28T21:53:53.747Z,15.80
2019-02-28T21:56:28.412Z,15.20
2019-02-28T21:59:04.002Z,16.30
2019-02-28T22:01:38.660Z,16.13
2019-02-28T22:04:13.002Z,16.40
2019-02-28T22:06:49.428Z,15.60
2019-02-28T22:09:24.763Z,14.60
2019-02-28T22:11:58.851Z,15.00
2019-02-28T22:14:32.899Z,13.83
2019-02-28T22:17:10.191Z,15.77
2019-02-28T22:19:44.773Z,15.17
2019-02-28T22:22:19.037Z,15.23
2019-02-28T22:24:52.820Z,16.57
2019-02-28T22:27:30.016Z,15.17
2019-02-28T22:30:14.501Z,14.53
2019-02-28T22:32:53.443Z,14.77
2019-02-28T22:35:37.056Z,15.07
2019-02-28T22:38:11.401Z,15.17
2019-02-28T22:40:45.128Z,15.97
2019-02-28T22:43:18.818Z,14.77
2019-02-28T22:45:52.635Z,14.63
2019-02-28T22:48:26.609Z,15.03
2019-02-28T22:51:00.175Z,16.47
2019-02-28T22:53:38.657Z,16.23
2019-02-28T22:56:13.351Z,15.77
2019-02-28T22:58:48.283Z,15.00
2019-02-28T23:01:24.401Z,16.17
2019-02-28T23:03:58.694Z,14.00
2019-02-28T23:06:33.453Z,14.10
2019-02-28T23:09:09.303Z,13.73
2019-02-28T23:11:42.978Z,13.83
2019-02-28T23:14:17.106Z,14.53
2019-02-28T23:16:50.815Z,12.70
2019-02-28T23:19:26.568Z,12.60
2019-02-28T23:21:59.948Z,13.10
2019-02-28T23:24:34.245Z,13.27
2019-02-28T23:27:25.857Z,13.63
2019-02-28T23:30:21.456Z,15.00
2019-02-28T23:33:04.431Z,12.37
2019-02-28T23:35:42.875Z,13.40
2019-02-28T23:38:16.972Z,13.60
2019-02-28T23:40:51.129Z,13.63
2019-02-28T23:43:25.119Z,12.00
2019-02-28T23:45:59.285Z,12.43
2019-02-28T23:48:32.844Z,13.60
2019-02-28T23:51:09.061Z,13.03
2019-02-28T23:53:42.747Z,14.07
2019-02-28T23:56:16.981Z,12.57
2019-02-28T23:58:50.551Z,11.33
